Saint-Ambroise, Canada
Current Conditions -  °F | °C
As of 5:00 AM on Thursday 23 Oct 2014 (Local Time) from CYBG Reporting Station
Clear Clear  
Wind Chill: 27°   Ceiling: Unl
Heat Index: 34°   Visibility: 25mi
Dew Point: 28°   Wind: 8mph
Humidity: 81%   Direction: 80°E
Pressure: 30.32"   Gusts: NA
Location:  48.55°N, 71.32°W
Report Text: CYBG 230900Z 08007KT 25SM SKC 01/M02 A3032 RMK SLP276
Loading
Personal Weather Stations






























Interactive Weather Map
Tropical Storm Tracking
New forecast layout! Learn more

10-Day Weather Forecast

Advertisements
Track Severe Weather on mobile